sensor_id;sensor_type;location;lat;lon;timestamp;P1;durP1;ratioP1;P2;durP2;ratioP2
6517;SDS011;3292;48.944;9.240;2023-07-31T00:01:42;3.47;;;2.00;;
6517;SDS011;3292;48.944;9.240;2023-07-31T00:04:10;4.47;;;2.43;;
6517;SDS011;3292;48.944;9.240;2023-07-31T00:06:39;4.87;;;2.60;;
6517;SDS011;3292;48.944;9.240;2023-07-31T00:09:06;5.40;;;2.43;;
6517;SDS011;3292;48.944;9.240;2023-07-31T00:11:34;6.03;;;2.57;;
6517;SDS011;3292;48.944;9.240;2023-07-31T00:14:02;5.20;;;2.50;;
6517;SDS011;3292;48.944;9.240;2023-07-31T00:16:29;5.03;;;2.50;;
6517;SDS011;3292;48.944;9.240;2023-07-31T00:19:01;4.50;;;2.50;;
6517;SDS011;3292;48.944;9.240;2023-07-31T00:21:29;3.43;;;2.40;;
6517;SDS011;3292;48.944;9.240;2023-07-31T00:23:56;3.27;;;2.17;;
6517;SDS011;3292;48.944;9.240;2023-07-31T00:26:24;4.83;;;2.30;;
6517;SDS011;3292;48.944;9.240;2023-07-31T00:28:52;2.93;;;2.23;;
6517;SDS011;3292;48.944;9.240;2023-07-31T00:31:19;3.40;;;2.30;;
6517;SDS011;3292;48.944;9.240;2023-07-31T00:33:47;3.13;;;2.47;;
6517;SDS011;3292;48.944;9.240;2023-07-31T00:36:18;3.30;;;2.10;;
6517;SDS011;3292;48.944;9.240;2023-07-31T00:38:46;4.50;;;2.33;;
6517;SDS011;3292;48.944;9.240;2023-07-31T00:41:14;3.90;;;2.47;;
6517;SDS011;3292;48.944;9.240;2023-07-31T00:43:42;3.93;;;2.40;;
6517;SDS011;3292;48.944;9.240;2023-07-31T00:46:10;5.33;;;2.13;;
6517;SDS011;3292;48.944;9.240;2023-07-31T00:48:40;4.30;;;2.60;;
6517;SDS011;3292;48.944;9.240;2023-07-31T00:51:10;4.13;;;2.40;;
6517;SDS011;3292;48.944;9.240;2023-07-31T00:53:40;3.43;;;2.63;;
6517;SDS011;3292;48.944;9.240;2023-07-31T00:56:13;4.50;;;2.53;;
6517;SDS011;3292;48.944;9.240;2023-07-31T00:58:43;4.73;;;2.50;;
6517;SDS011;3292;48.944;9.240;2023-07-31T01:01:16;5.50;;;2.53;;
6517;SDS011;3292;48.944;9.240;2023-07-31T01:03:47;4.20;;;2.60;;
6517;SDS011;3292;48.944;9.240;2023-07-31T01:06:17;5.60;;;2.50;;
6517;SDS011;3292;48.944;9.240;2023-07-31T01:08:58;4.57;;;2.53;;
6517;SDS011;3292;48.944;9.240;2023-07-31T01:11:28;4.87;;;2.50;;
6517;SDS011;3292;48.944;9.240;2023-07-31T01:13:57;4.87;;;2.20;;
6517;SDS011;3292;48.944;9.240;2023-07-31T01:16:24;6.13;;;2.70;;
6517;SDS011;3292;48.944;9.240;2023-07-31T01:18:52;3.40;;;2.50;;
6517;SDS011;3292;48.944;9.240;2023-07-31T01:21:21;4.67;;;2.77;;
6517;SDS011;3292;48.944;9.240;2023-07-31T01:24:02;3.70;;;2.43;;
6517;SDS011;3292;48.944;9.240;2023-07-31T01:26:41;3.67;;;2.53;;
6517;SDS011;3292;48.944;9.240;2023-07-31T01:29:15;3.07;;;2.37;;
6517;SDS011;3292;48.944;9.240;2023-07-31T01:31:50;4.73;;;2.63;;
6517;SDS011;3292;48.944;9.240;2023-07-31T01:34:21;4.00;;;2.53;;
6517;SDS011;3292;48.944;9.240;2023-07-31T01:36:48;5.63;;;2.70;;
6517;SDS011;3292;48.944;9.240;2023-07-31T01:39:15;6.37;;;2.60;;
6517;SDS011;3292;48.944;9.240;2023-07-31T01:41:43;2.83;;;2.37;;
6517;SDS011;3292;48.944;9.240;2023-07-31T01:44:11;4.13;;;2.87;;
6517;SDS011;3292;48.944;9.240;2023-07-31T01:46:40;4.97;;;2.60;;
6517;SDS011;3292;48.944;9.240;2023-07-31T01:49:09;4.40;;;2.43;;
6517;SDS011;3292;48.944;9.240;2023-07-31T01:51:40;3.90;;;2.50;;
6517;SDS011;3292;48.944;9.240;2023-07-31T01:54:12;3.10;;;2.33;;
6517;SDS011;3292;48.944;9.240;2023-07-31T01:56:42;4.40;;;2.67;;
6517;SDS011;3292;48.944;9.240;2023-07-31T01:59:13;3.93;;;2.40;;
6517;SDS011;3292;48.944;9.240;2023-07-31T02:01:45;4.23;;;2.40;;
6517;SDS011;3292;48.944;9.240;2023-07-31T02:04:14;2.73;;;2.53;;
6517;SDS011;3292;48.944;9.240;2023-07-31T02:06:45;3.20;;;2.50;;
6517;SDS011;3292;48.944;9.240;2023-07-31T02:09:15;4.07;;;2.20;;
6517;SDS011;3292;48.944;9.240;2023-07-31T02:11:48;4.40;;;2.13;;
6517;SDS011;3292;48.944;9.240;2023-07-31T02:14:17;3.83;;;2.50;;
6517;SDS011;3292;48.944;9.240;2023-07-31T02:16:47;2.33;;;2.13;;
6517;SDS011;3292;48.944;9.240;2023-07-31T02:19:17;2.80;;;2.00;;
6517;SDS011;3292;48.944;9.240;2023-07-31T02:21:49;7.47;;;2.50;;
6517;SDS011;3292;48.944;9.240;2023-07-31T02:24:19;2.87;;;2.10;;
6517;SDS011;3292;48.944;9.240;2023-07-31T02:26:50;3.57;;;2.40;;
6517;SDS011;3292;48.944;9.240;2023-07-31T02:29:19;3.57;;;2.50;;
6517;SDS011;3292;48.944;9.240;2023-07-31T02:31:48;4.83;;;2.53;;
6517;SDS011;3292;48.944;9.240;2023-07-31T02:34:18;4.33;;;2.60;;
6517;SDS011;3292;48.944;9.240;2023-07-31T02:36:48;3.70;;;2.60;;
6517;SDS011;3292;48.944;9.240;2023-07-31T02:39:18;5.07;;;2.70;;
6517;SDS011;3292;48.944;9.240;2023-07-31T02:41:47;3.70;;;2.50;;
6517;SDS011;3292;48.944;9.240;2023-07-31T02:44:18;3.97;;;2.57;;
6517;SDS011;3292;48.944;9.240;2023-07-31T02:46:46;3.80;;;2.20;;
6517;SDS011;3292;48.944;9.240;2023-07-31T02:49:14;3.67;;;2.30;;
6517;SDS011;3292;48.944;9.240;2023-07-31T02:51:41;5.13;;;2.83;;
6517;SDS011;3292;48.944;9.240;2023-07-31T02:54:07;3.20;;;2.30;;
6517;SDS011;3292;48.944;9.240;2023-07-31T02:56:37;4.93;;;2.60;;
6517;SDS011;3292;48.944;9.240;2023-07-31T02:59:07;4.60;;;2.40;;
6517;SDS011;3292;48.944;9.240;2023-07-31T03:01:34;4.40;;;2.33;;
6517;SDS011;3292;48.944;9.240;2023-07-31T03:04:01;4.03;;;2.50;;
6517;SDS011;3292;48.944;9.240;2023-07-31T03:06:28;4.33;;;2.00;;
6517;SDS011;3292;48.944;9.240;2023-07-31T03:08:54;5.07;;;2.70;;
6517;SDS011;3292;48.944;9.240;2023-07-31T03:11:21;4.40;;;2.30;;
6517;SDS011;3292;48.944;9.240;2023-07-31T03:13:48;4.60;;;2.40;;
6517;SDS011;3292;48.944;9.240;2023-07-31T03:16:16;4.43;;;2.33;;
6517;SDS011;3292;48.944;9.240;2023-07-31T03:18:43;3.73;;;2.30;;
6517;SDS011;3292;48.944;9.240;2023-07-31T03:21:10;3.93;;;2.47;;
6517;SDS011;3292;48.944;9.240;2023-07-31T03:23:37;3.00;;;2.30;;
6517;SDS011;3292;48.944;9.240;2023-07-31T03:26:06;4.13;;;2.17;;
6517;SDS011;3292;48.944;9.240;2023-07-31T03:28:34;5.27;;;2.50;;
6517;SDS011;3292;48.944;9.240;2023-07-31T03:31:00;3.37;;;2.57;;
6517;SDS011;3292;48.944;9.240;2023-07-31T03:33:29;3.60;;;2.70;;
6517;SDS011;3292;48.944;9.240;2023-07-31T03:35:56;2.97;;;2.50;;
6517;SDS011;3292;48.944;9.240;2023-07-31T03:38:25;5.10;;;2.60;;
6517;SDS011;3292;48.944;9.240;2023-07-31T03:40:54;5.63;;;2.60;;
6517;SDS011;3292;48.944;9.240;2023-07-31T03:43:25;2.77;;;2.10;;
6517;SDS011;3292;48.944;9.240;2023-07-31T03:45:53;2.47;;;2.27;;
6517;SDS011;3292;48.944;9.240;2023-07-31T03:48:23;4.90;;;2.47;;
6517;SDS011;3292;48.944;9.240;2023-07-31T03:50:55;5.43;;;2.50;;
6517;SDS011;3292;48.944;9.240;2023-07-31T03:53:23;3.50;;;2.30;;
6517;SDS011;3292;48.944;9.240;2023-07-31T03:55:52;3.20;;;2.40;;
6517;SDS011;3292;48.944;9.240;2023-07-31T03:58:21;6.03;;;2.57;;
6517;SDS011;3292;48.944;9.240;2023-07-31T04:00:49;2.77;;;2.20;;
6517;SDS011;3292;48.944;9.240;2023-07-31T04:03:20;4.90;;;2.60;;
6517;SDS011;3292;48.944;9.240;2023-07-31T04:05:50;3.57;;;1.97;;
6517;SDS011;3292;48.944;9.240;2023-07-31T04:08:20;3.23;;;2.27;;
6517;SDS011;3292;48.944;9.240;2023-07-31T04:10:50;4.03;;;2.43;;
6517;SDS011;3292;48.944;9.240;2023-07-31T04:13:19;3.97;;;2.43;;
6517;SDS011;3292;48.944;9.240;2023-07-31T04:15:50;2.93;;;2.20;;
6517;SDS011;3292;48.944;9.240;2023-07-31T04:18:20;4.40;;;2.60;;
6517;SDS011;3292;48.944;9.240;2023-07-31T04:20:51;3.50;;;2.57;;
6517;SDS011;3292;48.944;9.240;2023-07-31T04:23:23;3.10;;;2.50;;
6517;SDS011;3292;48.944;9.240;2023-07-31T04:25:55;5.70;;;2.60;;
6517;SDS011;3292;48.944;9.240;2023-07-31T04:28:25;5.50;;;2.50;;
6517;SDS011;3292;48.944;9.240;2023-07-31T04:30:57;4.37;;;2.33;;
6517;SDS011;3292;48.944;9.240;2023-07-31T04:33:28;4.37;;;2.67;;
6517;SDS011;3292;48.944;9.240;2023-07-31T04:36:04;4.00;;;2.70;;
6517;SDS011;3292;48.944;9.240;2023-07-31T04:38:38;2.57;;;2.37;;
6517;SDS011;3292;48.944;9.240;2023-07-31T04:41:07;3.73;;;2.57;;
6517;SDS011;3292;48.944;9.240;2023-07-31T04:43:37;5.63;;;2.50;;
6517;SDS011;3292;48.944;9.240;2023-07-31T04:46:08;3.03;;;2.53;;
6517;SDS011;3292;48.944;9.240;2023-07-31T04:48:37;4.37;;;2.73;;
6517;SDS011;3292;48.944;9.240;2023-07-31T04:51:07;3.83;;;2.60;;
6517;SDS011;3292;48.944;9.240;2023-07-31T04:53:37;2.83;;;2.43;;
6517;SDS011;3292;48.944;9.240;2023-07-31T04:56:06;6.13;;;3.30;;
6517;SDS011;3292;48.944;9.240;2023-07-31T04:58:36;5.80;;;2.57;;
6517;SDS011;3292;48.944;9.240;2023-07-31T05:01:05;3.93;;;2.70;;
6517;SDS011;3292;48.944;9.240;2023-07-31T05:03:34;3.43;;;2.67;;
6517;SDS011;3292;48.944;9.240;2023-07-31T05:06:03;4.73;;;2.77;;
6517;SDS011;3292;48.944;9.240;2023-07-31T05:08:33;4.03;;;2.77;;
6517;SDS011;3292;48.944;9.240;2023-07-31T05:11:04;4.27;;;2.47;;
6517;SDS011;3292;48.944;9.240;2023-07-31T05:13:34;6.67;;;2.90;;
6517;SDS011;3292;48.944;9.240;2023-07-31T05:16:03;6.13;;;2.70;;
6517;SDS011;3292;48.944;9.240;2023-07-31T05:18:32;4.10;;;2.47;;
6517;SDS011;3292;48.944;9.240;2023-07-31T05:21:02;5.63;;;2.63;;
6517;SDS011;3292;48.944;9.240;2023-07-31T05:23:32;8.63;;;2.77;;
6517;SDS011;3292;48.944;9.240;2023-07-31T05:26:07;3.00;;;2.40;;
6517;SDS011;3292;48.944;9.240;2023-07-31T05:28:36;4.27;;;2.30;;
6517;SDS011;3292;48.944;9.240;2023-07-31T05:31:07;3.27;;;2.37;;
6517;SDS011;3292;48.944;9.240;2023-07-31T05:33:37;3.60;;;2.47;;
6517;SDS011;3292;48.944;9.240;2023-07-31T05:36:06;3.73;;;2.40;;
6517;SDS011;3292;48.944;9.240;2023-07-31T05:38:35;7.97;;;2.70;;
6517;SDS011;3292;48.944;9.240;2023-07-31T05:41:05;3.93;;;2.67;;
6517;SDS011;3292;48.944;9.240;2023-07-31T05:43:35;3.60;;;2.37;;
6517;SDS011;3292;48.944;9.240;2023-07-31T05:46:03;6.17;;;2.47;;
6517;SDS011;3292;48.944;9.240;2023-07-31T05:48:32;3.30;;;2.23;;
6517;SDS011;3292;48.944;9.240;2023-07-31T05:51:01;5.80;;;2.10;;
6517;SDS011;3292;48.944;9.240;2023-07-31T05:53:32;3.80;;;2.43;;
6517;SDS011;3292;48.944;9.240;2023-07-31T05:56:07;3.50;;;2.20;;
6517;SDS011;3292;48.944;9.240;2023-07-31T05:58:36;2.40;;;1.93;;
6517;SDS011;3292;48.944;9.240;2023-07-31T06:01:05;4.23;;;2.50;;
6517;SDS011;3292;48.944;9.240;2023-07-31T06:03:34;5.77;;;2.80;;
6517;SDS011;3292;48.944;9.240;2023-07-31T06:06:05;5.00;;;2.50;;
6517;SDS011;3292;48.944;9.240;2023-07-31T06:08:34;3.90;;;2.50;;
6517;SDS011;3292;48.944;9.240;2023-07-31T06:11:02;4.10;;;2.30;;
6517;SDS011;3292;48.944;9.240;2023-07-31T06:13:33;4.03;;;2.27;;
6517;SDS011;3292;48.944;9.240;2023-07-31T06:16:02;4.40;;;2.43;;
6517;SDS011;3292;48.944;9.240;2023-07-31T06:18:31;3.40;;;2.27;;
6517;SDS011;3292;48.944;9.240;2023-07-31T06:21:00;3.53;;;2.30;;
6517;SDS011;3292;48.944;9.240;2023-07-31T06:23:29;2.93;;;2.30;;
6517;SDS011;3292;48.944;9.240;2023-07-31T06:25:58;5.03;;;2.70;;
6517;SDS011;3292;48.944;9.240;2023-07-31T06:28:27;3.60;;;2.10;;
6517;SDS011;3292;48.944;9.240;2023-07-31T06:30:59;4.60;;;2.25;;
6517;SDS011;3292;48.944;9.240;2023-07-31T06:33:27;4.05;;;2.38;;
6517;SDS011;3292;48.944;9.240;2023-07-31T06:35:59;5.05;;;2.38;;
6517;SDS011;3292;48.944;9.240;2023-07-31T06:38:26;2.53;;;2.25;;
6517;SDS011;3292;48.944;9.240;2023-07-31T06:40:53;4.88;;;2.58;;
6517;SDS011;3292;48.944;9.240;2023-07-31T06:43:20;3.67;;;2.28;;
6517;SDS011;3292;48.944;9.240;2023-07-31T06:45:47;3.75;;;2.30;;
6517;SDS011;3292;48.944;9.240;2023-07-31T06:48:17;3.63;;;2.20;;
6517;SDS011;3292;48.944;9.240;2023-07-31T06:50:44;5.85;;;2.33;;
6517;SDS011;3292;48.944;9.240;2023-07-31T06:53:11;3.22;;;2.30;;
6517;SDS011;3292;48.944;9.240;2023-07-31T06:55:37;4.82;;;2.35;;
6517;SDS011;3292;48.944;9.240;2023-07-31T06:58:05;3.92;;;2.50;;
6517;SDS011;3292;48.944;9.240;2023-07-31T07:00:32;4.35;;;2.28;;
6517;SDS011;3292;48.944;9.240;2023-07-31T07:02:59;5.95;;;2.40;;
6517;SDS011;3292;48.944;9.240;2023-07-31T07:05:28;4.00;;;2.53;;
6517;SDS011;3292;48.944;9.240;2023-07-31T07:07:55;4.60;;;2.78;;
6517;SDS011;3292;48.944;9.240;2023-07-31T07:10:23;3.10;;;2.30;;
6517;SDS011;3292;48.944;9.240;2023-07-31T07:12:49;6.60;;;2.47;;
6517;SDS011;3292;48.944;9.240;2023-07-31T07:15:16;3.95;;;2.25;;
6517;SDS011;3292;48.944;9.240;2023-07-31T07:17:43;4.75;;;2.22;;
6517;SDS011;3292;48.944;9.240;2023-07-31T07:20:10;6.55;;;2.78;;
6517;SDS011;3292;48.944;9.240;2023-07-31T07:22:38;5.73;;;2.80;;
6517;SDS011;3292;48.944;9.240;2023-07-31T07:25:08;6.10;;;2.80;;
6517;SDS011;3292;48.944;9.240;2023-07-31T07:27:35;4.97;;;2.53;;
6517;SDS011;3292;48.944;9.240;2023-07-31T07:30:02;5.17;;;2.80;;
6517;SDS011;3292;48.944;9.240;2023-07-31T07:32:30;3.87;;;2.40;;
6517;SDS011;3292;48.944;9.240;2023-07-31T07:34:56;4.50;;;2.60;;
6517;SDS011;3292;48.944;9.240;2023-07-31T07:37:23;3.70;;;2.40;;
6517;SDS011;3292;48.944;9.240;2023-07-31T07:39:51;5.47;;;2.53;;
6517;SDS011;3292;48.944;9.240;2023-07-31T07:42:18;5.90;;;2.60;;
6517;SDS011;3292;48.944;9.240;2023-07-31T07:44:45;5.97;;;2.73;;
6517;SDS011;3292;48.944;9.240;2023-07-31T07:47:12;4.47;;;2.40;;
6517;SDS011;3292;48.944;9.240;2023-07-31T07:49:39;3.83;;;2.43;;
6517;SDS011;3292;48.944;9.240;2023-07-31T07:52:06;4.37;;;2.50;;
6517;SDS011;3292;48.944;9.240;2023-07-31T07:54:33;4.27;;;2.50;;
6517;SDS011;3292;48.944;9.240;2023-07-31T07:57:01;6.30;;;2.70;;
6517;SDS011;3292;48.944;9.240;2023-07-31T07:59:28;5.47;;;2.70;;
6517;SDS011;3292;48.944;9.240;2023-07-31T08:01:55;4.87;;;2.60;;
6517;SDS011;3292;48.944;9.240;2023-07-31T08:04:22;4.63;;;2.83;;
6517;SDS011;3292;48.944;9.240;2023-07-31T08:06:49;5.67;;;2.60;;
6517;SDS011;3292;48.944;9.240;2023-07-31T08:09:16;5.47;;;2.70;;
6517;SDS011;3292;48.944;9.240;2023-07-31T08:11:42;3.80;;;2.50;;
6517;SDS011;3292;48.944;9.240;2023-07-31T08:14:11;6.10;;;2.70;;
6517;SDS011;3292;48.944;9.240;2023-07-31T08:16:38;4.70;;;2.70;;
6517;SDS011;3292;48.944;9.240;2023-07-31T08:19:05;6.80;;;2.90;;
6517;SDS011;3292;48.944;9.240;2023-07-31T08:21:32;3.37;;;2.57;;
6517;SDS011;3292;48.944;9.240;2023-07-31T08:23:58;5.03;;;2.50;;
6517;SDS011;3292;48.944;9.240;2023-07-31T08:26:25;6.80;;;2.53;;
6517;SDS011;3292;48.944;9.240;2023-07-31T08:28:52;7.80;;;3.03;;
6517;SDS011;3292;48.944;9.240;2023-07-31T08:31:20;5.23;;;2.80;;
6517;SDS011;3292;48.944;9.240;2023-07-31T08:33:47;3.77;;;2.93;;
6517;SDS011;3292;48.944;9.240;2023-07-31T08:36:14;3.77;;;2.70;;
6517;SDS011;3292;48.944;9.240;2023-07-31T08:38:41;5.57;;;2.70;;
6517;SDS011;3292;48.944;9.240;2023-07-31T08:41:07;4.37;;;2.60;;
6517;SDS011;3292;48.944;9.240;2023-07-31T08:43:35;3.97;;;2.70;;
6517;SDS011;3292;48.944;9.240;2023-07-31T08:46:04;6.50;;;2.80;;
6517;SDS011;3292;48.944;9.240;2023-07-31T08:48:32;5.93;;;2.53;;
6517;SDS011;3292;48.944;9.240;2023-07-31T08:51:01;6.23;;;3.00;;
6517;SDS011;3292;48.944;9.240;2023-07-31T08:53:28;4.93;;;2.70;;
6517;SDS011;3292;48.944;9.240;2023-07-31T08:55:55;3.83;;;2.47;;
6517;SDS011;3292;48.944;9.240;2023-07-31T08:58:24;3.57;;;2.63;;
6517;SDS011;3292;48.944;9.240;2023-07-31T09:00:53;5.23;;;2.70;;
6517;SDS011;3292;48.944;9.240;2023-07-31T09:03:22;3.73;;;2.50;;
6517;SDS011;3292;48.944;9.240;2023-07-31T09:05:52;5.83;;;2.50;;
6517;SDS011;3292;48.944;9.240;2023-07-31T09:08:21;5.23;;;2.63;;
6517;SDS011;3292;48.944;9.240;2023-07-31T09:10:48;5.97;;;2.70;;
6517;SDS011;3292;48.944;9.240;2023-07-31T09:13:16;5.63;;;2.53;;
6517;SDS011;3292;48.944;9.240;2023-07-31T09:15:43;4.87;;;2.63;;
6517;SDS011;3292;48.944;9.240;2023-07-31T09:18:11;5.23;;;2.67;;
6517;SDS011;3292;48.944;9.240;2023-07-31T09:20:39;4.90;;;2.70;;
6517;SDS011;3292;48.944;9.240;2023-07-31T09:23:08;5.70;;;2.90;;
6517;SDS011;3292;48.944;9.240;2023-07-31T09:25:36;3.97;;;2.50;;
6517;SDS011;3292;48.944;9.240;2023-07-31T09:28:04;4.07;;;2.53;;
6517;SDS011;3292;48.944;9.240;2023-07-31T09:30:43;6.17;;;2.73;;
6517;SDS011;3292;48.944;9.240;2023-07-31T09:33:12;5.80;;;2.87;;
6517;SDS011;3292;48.944;9.240;2023-07-31T09:35:38;5.90;;;3.07;;
6517;SDS011;3292;48.944;9.240;2023-07-31T09:38:08;5.07;;;2.70;;
6517;SDS011;3292;48.944;9.240;2023-07-31T09:40:36;4.67;;;2.40;;
6517;SDS011;3292;48.944;9.240;2023-07-31T09:43:05;4.63;;;2.50;;
6517;SDS011;3292;48.944;9.240;2023-07-31T09:45:33;5.77;;;2.97;;
6517;SDS011;3292;48.944;9.240;2023-07-31T09:48:01;4.27;;;2.67;;
6517;SDS011;3292;48.944;9.240;2023-07-31T09:50:29;5.47;;;2.90;;
6517;SDS011;3292;48.944;9.240;2023-07-31T09:52:56;5.33;;;2.70;;
6517;SDS011;3292;48.944;9.240;2023-07-31T09:55:24;3.60;;;2.60;;
6517;SDS011;3292;48.944;9.240;2023-07-31T09:57:51;5.27;;;2.67;;
6517;SDS011;3292;48.944;9.240;2023-07-31T10:00:20;5.17;;;2.80;;
6517;SDS011;3292;48.944;9.240;2023-07-31T10:02:50;4.23;;;2.50;;
6517;SDS011;3292;48.944;9.240;2023-07-31T10:05:17;4.27;;;3.00;;
6517;SDS011;3292;48.944;9.240;2023-07-31T10:07:45;6.27;;;2.80;;
6517;SDS011;3292;48.944;9.240;2023-07-31T10:10:19;3.97;;;2.77;;
6517;SDS011;3292;48.944;9.240;2023-07-31T10:12:49;10.57;;;2.97;;
6517;SDS011;3292;48.944;9.240;2023-07-31T10:15:16;4.40;;;2.90;;
6517;SDS011;3292;48.944;9.240;2023-07-31T10:17:43;5.97;;;2.80;;
6517;SDS011;3292;48.944;9.240;2023-07-31T10:20:10;6.03;;;2.83;;
6517;SDS011;3292;48.944;9.240;2023-07-31T10:22:37;5.40;;;2.83;;
6517;SDS011;3292;48.944;9.240;2023-07-31T10:25:05;6.27;;;3.03;;
6517;SDS011;3292;48.944;9.240;2023-07-31T10:27:35;3.57;;;2.53;;
6517;SDS011;3292;48.944;9.240;2023-07-31T10:30:05;5.37;;;2.80;;
6517;SDS011;3292;48.944;9.240;2023-07-31T10:32:35;3.83;;;2.88;;
6517;SDS011;3292;48.944;9.240;2023-07-31T10:35:04;3.67;;;2.70;;
6517;SDS011;3292;48.944;9.240;2023-07-31T10:37:35;7.18;;;3.00;;
6517;SDS011;3292;48.944;9.240;2023-07-31T10:40:04;4.30;;;2.87;;
6517;SDS011;3292;48.944;9.240;2023-07-31T10:42:34;6.40;;;3.03;;
6517;SDS011;3292;48.944;9.240;2023-07-31T10:45:05;6.03;;;2.77;;
6517;SDS011;3292;48.944;9.240;2023-07-31T10:47:38;6.13;;;3.28;;
6517;SDS011;3292;48.944;9.240;2023-07-31T10:50:17;4.15;;;2.92;;
6517;SDS011;3292;48.944;9.240;2023-07-31T10:52:48;4.83;;;3.10;;
6517;SDS011;3292;48.944;9.240;2023-07-31T10:55:23;6.17;;;3.10;;
6517;SDS011;3292;48.944;9.240;2023-07-31T10:57:54;3.90;;;2.88;;
6517;SDS011;3292;48.944;9.240;2023-07-31T11:00:24;6.70;;;3.25;;
6517;SDS011;3292;48.944;9.240;2023-07-31T11:02:56;7.47;;;3.13;;
6517;SDS011;3292;48.944;9.240;2023-07-31T11:08:13;6.20;;;2.75;;
6517;SDS011;3292;48.944;9.240;2023-07-31T11:10:41;4.95;;;2.90;;
6517;SDS011;3292;48.944;9.240;2023-07-31T11:13:08;5.97;;;2.77;;
6517;SDS011;3292;48.944;9.240;2023-07-31T11:15:37;4.80;;;2.95;;
6517;SDS011;3292;48.944;9.240;2023-07-31T11:18:03;4.63;;;2.80;;
6517;SDS011;3292;48.944;9.240;2023-07-31T11:20:33;4.40;;;2.55;;
6517;SDS011;3292;48.944;9.240;2023-07-31T11:23:02;4.22;;;3.15;;
6517;SDS011;3292;48.944;9.240;2023-07-31T11:25:30;8.05;;;3.45;;
6517;SDS011;3292;48.944;9.240;2023-07-31T11:27:57;5.43;;;3.40;;
6517;SDS011;3292;48.944;9.240;2023-07-31T11:30:27;4.03;;;2.92;;
6517;SDS011;3292;48.944;9.240;2023-07-31T11:32:56;5.87;;;3.10;;
6517;SDS011;3292;48.944;9.240;2023-07-31T11:35:23;6.30;;;3.43;;
6517;SDS011;3292;48.944;9.240;2023-07-31T11:37:50;5.75;;;3.15;;
6517;SDS011;3292;48.944;9.240;2023-07-31T11:40:17;7.72;;;4.53;;
6517;SDS011;3292;48.944;9.240;2023-07-31T11:42:45;5.47;;;3.28;;
6517;SDS011;3292;48.944;9.240;2023-07-31T11:45:11;4.63;;;3.10;;
6517;SDS011;3292;48.944;9.240;2023-07-31T11:47:38;4.93;;;3.30;;
6517;SDS011;3292;48.944;9.240;2023-07-31T11:50:10;5.00;;;3.30;;
6517;SDS011;3292;48.944;9.240;2023-07-31T11:52:39;5.47;;;3.63;;
6517;SDS011;3292;48.944;9.240;2023-07-31T11:55:08;5.60;;;3.00;;
6517;SDS011;3292;48.944;9.240;2023-07-31T11:57:36;5.75;;;3.30;;
6517;SDS011;3292;48.944;9.240;2023-07-31T12:00:05;6.70;;;3.38;;
6517;SDS011;3292;48.944;9.240;2023-07-31T12:02:34;7.03;;;3.35;;
6517;SDS011;3292;48.944;9.240;2023-07-31T12:05:01;3.95;;;2.90;;
6517;SDS011;3292;48.944;9.240;2023-07-31T12:07:43;5.57;;;3.35;;
6517;SDS011;3292;48.944;9.240;2023-07-31T12:10:27;7.07;;;3.65;;
6517;SDS011;3292;48.944;9.240;2023-07-31T12:12:55;5.28;;;3.22;;
6517;SDS011;3292;48.944;9.240;2023-07-31T12:15:28;6.43;;;3.45;;
6517;SDS011;3292;48.944;9.240;2023-07-31T12:17:57;7.13;;;3.70;;
6517;SDS011;3292;48.944;9.240;2023-07-31T12:20:23;5.07;;;3.15;;
6517;SDS011;3292;48.944;9.240;2023-07-31T12:22:52;7.32;;;3.22;;
6517;SDS011;3292;48.944;9.240;2023-07-31T12:25:21;7.53;;;3.35;;
6517;SDS011;3292;48.944;9.240;2023-07-31T12:27:50;7.18;;;3.70;;
6517;SDS011;3292;48.944;9.240;2023-07-31T12:30:27;4.35;;;3.47;;
6517;SDS011;3292;48.944;9.240;2023-07-31T12:32:54;4.70;;;2.85;;
6517;SDS011;3292;48.944;9.240;2023-07-31T12:35:21;4.82;;;2.92;;
6517;SDS011;3292;48.944;9.240;2023-07-31T12:37:47;6.32;;;3.33;;
6517;SDS011;3292;48.944;9.240;2023-07-31T12:40:16;5.47;;;3.30;;
6517;SDS011;3292;48.944;9.240;2023-07-31T12:42:43;4.95;;;3.15;;
6517;SDS011;3292;48.944;9.240;2023-07-31T12:45:09;5.38;;;3.50;;
6517;SDS011;3292;48.944;9.240;2023-07-31T12:47:36;5.68;;;3.30;;
6517;SDS011;3292;48.944;9.240;2023-07-31T12:50:03;5.60;;;3.30;;
6517;SDS011;3292;48.944;9.240;2023-07-31T12:52:31;7.40;;;3.22;;
6517;SDS011;3292;48.944;9.240;2023-07-31T12:54:58;4.60;;;3.13;;
6517;SDS011;3292;48.944;9.240;2023-07-31T12:57:26;4.63;;;3.25;;
6517;SDS011;3292;48.944;9.240;2023-07-31T12:59:53;5.13;;;3.28;;
6517;SDS011;3292;48.944;9.240;2023-07-31T13:02:20;6.82;;;3.38;;
6517;SDS011;3292;48.944;9.240;2023-07-31T13:04:47;6.57;;;3.55;;
6517;SDS011;3292;48.944;9.240;2023-07-31T13:07:16;6.13;;;3.20;;
6517;SDS011;3292;48.944;9.240;2023-07-31T13:09:43;5.72;;;3.20;;
6517;SDS011;3292;48.944;9.240;2023-07-31T13:12:09;3.83;;;2.80;;
6517;SDS011;3292;48.944;9.240;2023-07-31T13:14:37;4.13;;;2.80;;
6517;SDS011;3292;48.944;9.240;2023-07-31T13:17:04;5.47;;;3.13;;
6517;SDS011;3292;48.944;9.240;2023-07-31T13:19:31;4.82;;;3.38;;
6517;SDS011;3292;48.944;9.240;2023-07-31T13:21:58;5.05;;;3.08;;
6517;SDS011;3292;48.944;9.240;2023-07-31T13:24:25;6.60;;;3.25;;
6517;SDS011;3292;48.944;9.240;2023-07-31T13:26:51;3.90;;;3.03;;
6517;SDS011;3292;48.944;9.240;2023-07-31T13:29:18;5.53;;;2.97;;
6517;SDS011;3292;48.944;9.240;2023-07-31T13:31:48;4.55;;;3.15;;
6517;SDS011;3292;48.944;9.240;2023-07-31T13:34:15;3.75;;;2.90;;
6517;SDS011;3292;48.944;9.240;2023-07-31T13:36:41;4.72;;;2.90;;
6517;SDS011;3292;48.944;9.240;2023-07-31T13:39:08;4.70;;;3.15;;
6517;SDS011;3292;48.944;9.240;2023-07-31T13:41:35;4.80;;;2.92;;
6517;SDS011;3292;48.944;9.240;2023-07-31T13:44:02;3.90;;;3.15;;
6517;SDS011;3292;48.944;9.240;2023-07-31T13:46:29;5.90;;;3.17;;
6517;SDS011;3292;48.944;9.240;2023-07-31T13:48:58;6.03;;;3.05;;
6517;SDS011;3292;48.944;9.240;2023-07-31T13:51:26;4.53;;;2.88;;
6517;SDS011;3292;48.944;9.240;2023-07-31T13:53:53;3.58;;;2.88;;
6517;SDS011;3292;48.944;9.240;2023-07-31T13:56:20;5.50;;;3.00;;
6517;SDS011;3292;48.944;9.240;2023-07-31T13:58:47;4.95;;;3.35;;
6517;SDS011;3292;48.944;9.240;2023-07-31T14:01:14;5.57;;;3.05;;
6517;SDS011;3292;48.944;9.240;2023-07-31T14:03:41;5.55;;;2.90;;
6517;SDS011;3292;48.944;9.240;2023-07-31T14:06:09;6.22;;;2.80;;
6517;SDS011;3292;48.944;9.240;2023-07-31T14:08:36;6.20;;;3.40;;
6517;SDS011;3292;48.944;9.240;2023-07-31T14:11:03;7.35;;;3.20;;
6517;SDS011;3292;48.944;9.240;2023-07-31T14:13:29;6.55;;;3.33;;
6517;SDS011;3292;48.944;9.240;2023-07-31T14:15:56;8.57;;;3.53;;
6517;SDS011;3292;48.944;9.240;2023-07-31T14:18:23;6.53;;;3.60;;
6517;SDS011;3292;48.944;9.240;2023-07-31T14:20:50;7.50;;;3.40;;
6517;SDS011;3292;48.944;9.240;2023-07-31T14:23:18;4.25;;;2.95;;
6517;SDS011;3292;48.944;9.240;2023-07-31T14:25:45;4.65;;;3.03;;
6517;SDS011;3292;48.944;9.240;2023-07-31T14:28:12;6.25;;;3.13;;
6517;SDS011;3292;48.944;9.240;2023-07-31T14:30:39;4.63;;;2.80;;
6517;SDS011;3292;48.944;9.240;2023-07-31T14:33:06;3.58;;;2.92;;
6517;SDS011;3292;48.944;9.240;2023-07-31T14:35:33;5.13;;;2.70;;
6517;SDS011;3292;48.944;9.240;2023-07-31T14:38:00;3.47;;;2.70;;
6517;SDS011;3292;48.944;9.240;2023-07-31T14:40:28;4.57;;;3.17;;
6517;SDS011;3292;48.944;9.240;2023-07-31T14:42:55;4.22;;;2.85;;
6517;SDS011;3292;48.944;9.240;2023-07-31T14:45:22;3.40;;;2.60;;
6517;SDS011;3292;48.944;9.240;2023-07-31T14:47:49;3.53;;;2.75;;
6517;SDS011;3292;48.944;9.240;2023-07-31T14:50:16;3.92;;;2.67;;
6517;SDS011;3292;48.944;9.240;2023-07-31T14:52:43;5.03;;;2.83;;
6517;SDS011;3292;48.944;9.240;2023-07-31T14:55:09;2.88;;;2.60;;
6517;SDS011;3292;48.944;9.240;2023-07-31T14:57:38;4.28;;;3.10;;
6517;SDS011;3292;48.944;9.240;2023-07-31T15:00:05;4.32;;;2.70;;
6517;SDS011;3292;48.944;9.240;2023-07-31T15:02:33;3.50;;;2.90;;
6517;SDS011;3292;48.944;9.240;2023-07-31T15:05:00;3.88;;;2.50;;
6517;SDS011;3292;48.944;9.240;2023-07-31T15:07:27;4.35;;;2.97;;
6517;SDS011;3292;48.944;9.240;2023-07-31T15:09:54;6.72;;;2.90;;
6517;SDS011;3292;48.944;9.240;2023-07-31T15:12:21;5.65;;;2.70;;
6517;SDS011;3292;48.944;9.240;2023-07-31T15:14:50;4.75;;;2.97;;
6517;SDS011;3292;48.944;9.240;2023-07-31T15:17:17;3.95;;;2.53;;
6517;SDS011;3292;48.944;9.240;2023-07-31T15:19:44;5.07;;;2.78;;
6517;SDS011;3292;48.944;9.240;2023-07-31T15:22:11;3.72;;;2.78;;
6517;SDS011;3292;48.944;9.240;2023-07-31T15:24:37;5.75;;;3.05;;
6517;SDS011;3292;48.944;9.240;2023-07-31T15:27:04;2.70;;;2.50;;